createdAt,value
2023-05-17T00:02:48.593Z,3.30
2023-05-17T00:06:57.254Z,3.50
2023-05-17T00:11:07.346Z,3.60
2023-05-17T00:15:15.999Z,3.97
2023-05-17T00:19:24.834Z,4.33
2023-05-17T00:23:33.736Z,4.20
2023-05-17T00:27:42.373Z,4.30
2023-05-17T00:31:51.033Z,4.00
2023-05-17T00:35:59.830Z,4.07
2023-05-17T00:40:09.586Z,3.50
2023-05-17T00:44:18.241Z,4.53
2023-05-17T00:48:27.664Z,4.53
2023-05-17T00:52:39.801Z,4.50
2023-05-17T00:56:49.125Z,4.33
2023-05-17T01:00:57.853Z,4.17
2023-05-17T01:05:07.463Z,4.80
2023-05-17T01:09:17.313Z,4.60
2023-05-17T01:13:29.094Z,4.87
2023-05-17T01:17:52.758Z,4.80
2023-05-17T01:22:39.456Z,4.33
2023-05-17T01:26:50.605Z,4.47
2023-05-17T01:31:01.584Z,5.63
2023-05-17T01:35:12.527Z,5.17
2023-05-17T01:39:21.465Z,4.27
2023-05-17T01:43:41.530Z,4.33
2023-05-17T01:48:09.825Z,4.17
2023-05-17T01:52:33.750Z,4.80
2023-05-17T01:56:44.631Z,6.20
2023-05-17T02:00:56.722Z,4.40
2023-05-17T02:05:06.066Z,3.90
2023-05-17T02:09:14.785Z,4.87
2023-05-17T02:13:23.508Z,4.83
2023-05-17T02:17:32.230Z,5.70
2023-05-17T02:21:41.552Z,3.77
2023-05-17T02:25:50.790Z,4.50
2023-05-17T02:29:59.523Z,4.47
2023-05-17T02:34:08.245Z,3.90
2023-05-17T02:38:16.901Z,5.10
2023-05-17T02:42:25.671Z,4.77
2023-05-17T02:46:36.354Z,4.53
2023-05-17T02:50:44.672Z,5.73
2023-05-17T02:54:53.393Z,4.67
2023-05-17T02:59:02.186Z,4.47
2023-05-17T03:03:10.892Z,5.67
2023-05-17T03:07:19.757Z,5.93
2023-05-17T03:11:28.419Z,5.03
2023-05-17T03:15:37.267Z,4.73
2023-05-17T03:19:45.925Z,4.62
2023-05-17T03:23:54.764Z,4.13
2023-05-17T03:28:03.426Z,5.70
2023-05-17T03:32:12.074Z,4.87
2023-05-17T03:36:20.730Z,5.37
2023-05-17T03:40:29.386Z,4.70
2023-05-17T03:44:38.047Z,5.90
2023-05-17T03:48:46.816Z,4.37
2023-05-17T03:52:55.463Z,5.73
2023-05-17T03:57:04.225Z,5.10
2023-05-17T04:01:12.829Z,5.03
2023-05-17T04:05:21.942Z,7.00
2023-05-17T04:09:33.944Z,6.60
2023-05-17T04:13:43.571Z,6.10
2023-05-17T04:17:52.353Z,6.30
2023-05-17T04:26:30.727Z,5.53
2023-05-17T04:30:44.182Z,6.83
2023-05-17T04:34:52.824Z,5.93
2023-05-17T04:39:02.951Z,6.67
2023-05-17T04:43:11.598Z,6.27
2023-05-17T04:47:20.417Z,6.20
2023-05-17T04:51:30.087Z,7.87
2023-05-17T04:55:38.780Z,6.47
2023-05-17T04:59:47.421Z,6.83
2023-05-17T05:03:56.105Z,7.77
2023-05-17T05:08:04.989Z,7.30
2023-05-17T05:12:13.708Z,5.73
2023-05-17T05:16:22.873Z,6.30
2023-05-17T05:20:33.943Z,6.27
2023-05-17T05:24:45.245Z,6.47
2023-05-17T05:28:53.891Z,7.10
2023-05-17T05:33:03.395Z,6.00
2023-05-17T05:37:12.590Z,8.27
2023-05-17T05:41:21.267Z,6.93
2023-05-17T05:45:49.500Z,7.80
2023-05-17T05:49:58.258Z,4.97
2023-05-17T05:54:08.452Z,5.90
2023-05-17T05:58:17.290Z,7.00
2023-05-17T06:02:26.786Z,6.30
2023-05-17T06:06:35.859Z,4.90
2023-05-17T06:10:44.807Z,5.50
2023-05-17T06:14:53.523Z,5.97
2023-05-17T06:19:02.642Z,5.17
2023-05-17T06:23:11.456Z,5.50
2023-05-17T06:27:20.109Z,5.33
2023-05-17T06:31:28.979Z,3.63
2023-05-17T06:35:54.243Z,3.23
2023-05-17T06:39:55.774Z,3.10
2023-05-17T06:43:59.313Z,2.67
2023-05-17T06:48:08.285Z,3.20
2023-05-17T06:52:17.121Z,3.70
2023-05-17T06:56:26.340Z,2.63
2023-05-17T07:00:35.158Z,3.43
2023-05-17T07:04:44.086Z,3.33
2023-05-17T07:08:52.705Z,3.67
2023-05-17T07:13:01.541Z,3.63
2023-05-17T07:17:11.521Z,4.10
2023-05-17T07:21:20.244Z,3.40
2023-05-17T07:25:29.074Z,3.70
2023-05-17T07:29:38.199Z,3.53
2023-05-17T07:33:46.888Z,4.53
2023-05-17T07:37:55.925Z,3.03
2023-05-17T07:42:05.733Z,2.90
2023-05-17T07:46:14.656Z,3.50
2023-05-17T07:50:23.388Z,3.10
2023-05-17T07:54:32.544Z,2.90
2023-05-17T07:58:41.293Z,3.30
2023-05-17T08:02:50.520Z,3.30
2023-05-17T08:07:00.909Z,3.27
2023-05-17T08:11:13.160Z,3.37
2023-05-17T08:15:22.323Z,3.03
2023-05-17T08:19:31.091Z,3.60
2023-05-17T08:23:41.786Z,3.10
2023-05-17T08:27:50.466Z,3.33
2023-05-17T08:32:02.781Z,3.12
2023-05-17T08:36:11.964Z,3.10
2023-05-17T08:40:22.553Z,3.20
2023-05-17T08:44:31.422Z,3.10
2023-05-17T08:48:42.147Z,3.17
2023-05-17T08:52:51.888Z,2.73
2023-05-17T08:57:04.895Z,2.93
2023-05-17T09:01:22.299Z,2.83
2023-05-17T09:05:32.274Z,2.40
2023-05-17T09:09:42.856Z,3.02
2023-05-17T09:13:51.729Z,3.63
2023-05-17T09:18:00.807Z,3.17
2023-05-17T09:22:09.546Z,3.30
2023-05-17T09:26:18.284Z,2.33
2023-05-17T09:30:31.927Z,2.60
2023-05-17T09:34:42.852Z,2.60
2023-05-17T09:39:00.102Z,2.53
2023-05-17T09:43:09.646Z,2.63
2023-05-17T09:47:27.110Z,2.63
2023-05-17T09:51:37.130Z,2.97
2023-05-17T09:55:49.874Z,2.70
2023-05-17T09:59:59.219Z,2.90
2023-05-17T10:04:12.777Z,3.27
2023-05-17T10:08:23.785Z,2.50
2023-05-17T10:12:35.185Z,3.20
2023-05-17T10:16:44.469Z,2.80
2023-05-17T10:20:53.371Z,2.20
2023-05-17T10:25:02.108Z,2.77
2023-05-17T10:29:11.720Z,3.03
2023-05-17T10:33:22.031Z,3.20
2023-05-17T10:37:32.015Z,3.67
2023-05-17T10:41:43.880Z,2.43
2023-05-17T10:46:20.741Z,3.30
2023-05-17T10:50:29.848Z,2.60
2023-05-17T10:54:42.151Z,2.90
2023-05-17T10:58:53.877Z,3.20
2023-05-17T11:03:20.268Z,2.63
2023-05-17T11:07:33.095Z,3.43
2023-05-17T11:11:59.952Z,2.80
2023-05-17T11:16:10.152Z,3.37
2023-05-17T11:20:31.696Z,2.97
2023-05-17T11:24:46.981Z,2.63
2023-05-17T11:29:02.584Z,2.23
2023-05-17T11:33:20.943Z,2.70
2023-05-17T11:37:30.466Z,2.67
2023-05-17T11:41:45.371Z,3.08
2023-05-17T11:46:01.437Z,3.50
2023-05-17T11:50:12.541Z,2.80
2023-05-17T11:54:24.748Z,3.00
2023-05-17T11:58:33.774Z,3.07
2023-05-17T12:02:42.475Z,2.30
2023-05-17T12:07:10.819Z,2.50
2023-05-17T12:11:21.105Z,3.13
2023-05-17T12:15:32.827Z,3.27
2023-05-17T12:19:42.749Z,2.63
2023-05-17T12:23:54.690Z,3.00
2023-05-17T12:28:16.176Z,2.90
2023-05-17T12:32:25.660Z,2.87
2023-05-17T12:36:34.928Z,2.47
2023-05-17T12:40:45.119Z,2.63
2023-05-17T12:44:53.769Z,3.03
2023-05-17T12:49:12.532Z,2.90
2023-05-17T12:53:23.155Z,3.33
2023-05-17T12:57:31.833Z,3.43
2023-05-17T13:01:51.515Z,3.13
2023-05-17T13:06:06.040Z,4.10
2023-05-17T13:10:29.047Z,3.13
2023-05-17T13:14:47.198Z,4.13
2023-05-17T13:18:56.412Z,2.73
2023-05-17T13:23:07.082Z,3.03
2023-05-17T13:27:15.828Z,3.70
2023-05-17T13:31:24.504Z,2.43
2023-05-17T13:35:33.178Z,2.90
2023-05-17T13:39:43.761Z,3.97
2023-05-17T13:43:52.491Z,3.00
2023-05-17T13:48:01.340Z,3.20
2023-05-17T13:52:10.115Z,2.80
2023-05-17T13:56:19.494Z,3.23
2023-05-17T14:00:28.515Z,3.20
2023-05-17T14:04:37.724Z,2.63
2023-05-17T14:08:46.422Z,3.37
2023-05-17T14:12:55.072Z,3.43
2023-05-17T14:17:03.722Z,2.80
2023-05-17T14:21:12.388Z,3.20
2023-05-17T14:25:21.349Z,3.60
2023-05-17T14:29:31.739Z,3.60
2023-05-17T14:33:40.434Z,3.80
2023-05-17T14:37:49.076Z,3.90
2023-05-17T14:41:57.771Z,2.97
2023-05-17T14:46:06.608Z,3.37
2023-05-17T14:50:15.269Z,3.03
2023-05-17T14:54:25.851Z,3.50
2023-05-17T14:58:34.600Z,4.20
2023-05-17T15:02:43.304Z,3.73
2023-05-17T15:06:52.784Z,3.80
2023-05-17T15:11:01.580Z,3.37
2023-05-17T15:15:11.138Z,3.37
2023-05-17T15:19:20.190Z,3.40
2023-05-17T15:23:29.882Z,4.10
2023-05-17T15:27:38.547Z,3.73
2023-05-17T15:31:47.216Z,3.60
2023-05-17T15:36:08.349Z,3.63
2023-05-17T15:40:17.653Z,2.77
2023-05-17T15:44:26.409Z,3.00
2023-05-17T15:48:36.140Z,3.77
2023-05-17T15:52:45.906Z,3.83
2023-05-17T15:56:54.574Z,2.90
2023-05-17T16:01:07.263Z,3.10
2023-05-17T16:05:16.390Z,3.37
2023-05-17T16:09:26.329Z,3.30
2023-05-17T16:13:34.986Z,4.13
2023-05-17T16:17:43.726Z,4.87
2023-05-17T16:21:52.667Z,2.97
2023-05-17T16:26:01.420Z,3.80
2023-05-17T16:30:10.736Z,3.85
2023-05-17T16:34:19.503Z,3.07
2023-05-17T16:38:28.249Z,2.93
2023-05-17T16:42:37.236Z,3.30
2023-05-17T16:46:46.049Z,3.27
2023-05-17T16:50:55.972Z,3.43
2023-05-17T16:55:05.058Z,3.03
2023-05-17T16:59:13.771Z,3.03
2023-05-17T17:03:22.587Z,3.40
2023-05-17T17:07:31.379Z,3.37
2023-05-17T17:11:42.205Z,3.73
2023-05-17T17:15:51.473Z,2.90
2023-05-17T17:20:00.367Z,3.50
2023-05-17T17:24:09.408Z,3.70
2023-05-17T17:28:18.150Z,2.97
2023-05-17T17:32:26.931Z,3.10
2023-05-17T17:36:35.682Z,3.20
2023-05-17T17:40:44.460Z,3.30
2023-05-17T17:44:53.659Z,3.60
2023-05-17T17:49:02.242Z,5.17
2023-05-17T17:53:11.115Z,4.53
2023-05-17T17:57:21.381Z,3.53
2023-05-17T18:01:31.914Z,3.23
2023-05-17T18:05:40.930Z,3.13
2023-05-17T18:09:50.856Z,4.47
2023-05-17T18:13:59.884Z,3.77
2023-05-17T18:18:08.586Z,3.47
2023-05-17T18:22:17.362Z,3.13
2023-05-17T18:26:26.263Z,2.90
2023-05-17T18:30:34.988Z,3.23
2023-05-17T18:34:43.798Z,2.90
2023-05-17T18:38:52.483Z,3.57
2023-05-17T18:43:01.486Z,2.87
2023-05-17T18:47:10.603Z,3.27
2023-05-17T18:51:19.383Z,3.17
2023-05-17T18:55:28.084Z,2.70
2023-05-17T18:59:36.709Z,2.93
2023-05-17T19:03:45.381Z,3.77
2023-05-17T19:07:54.051Z,3.47
2023-05-17T19:12:02.902Z,3.20
2023-05-17T19:16:11.573Z,3.20
2023-05-17T19:20:23.985Z,3.00
2023-05-17T19:24:33.618Z,3.43
2023-05-17T19:28:42.631Z,3.27
2023-05-17T19:32:59.227Z,3.90
2023-05-17T19:37:10.164Z,2.90
2023-05-17T19:41:24.468Z,3.23
2023-05-17T19:45:35.228Z,3.62
2023-05-17T19:49:44.714Z,3.33
2023-05-17T19:53:57.816Z,3.20
2023-05-17T19:58:10.830Z,2.70
2023-05-17T20:02:21.274Z,3.60
2023-05-17T20:06:30.989Z,3.50
2023-05-17T20:10:42.869Z,2.90
2023-05-17T20:14:53.518Z,3.10
2023-05-17T20:19:08.190Z,3.73
2023-05-17T20:23:20.600Z,5.50
2023-05-17T20:27:30.904Z,2.60
2023-05-17T20:31:39.730Z,5.20
2023-05-17T20:35:48.561Z,3.33
2023-05-17T20:40:01.682Z,3.03
2023-05-17T20:44:10.374Z,3.40
2023-05-17T20:48:19.032Z,3.33
2023-05-17T20:52:38.760Z,2.93
2023-05-17T20:56:39.778Z,3.93
2023-05-17T21:00:48.618Z,3.63
2023-05-17T21:04:57.282Z,3.40
2023-05-17T21:09:06.352Z,3.10
2023-05-17T21:13:15.308Z,3.70
2023-05-17T21:17:23.998Z,3.23
2023-05-17T21:21:32.637Z,3.10
2023-05-17T21:25:41.280Z,3.30
2023-05-17T21:29:52.881Z,3.97
2023-05-17T21:34:01.773Z,2.93
2023-05-17T21:38:10.631Z,3.07
2023-05-17T21:42:21.437Z,2.93
2023-05-17T21:46:30.192Z,2.70
2023-05-17T21:50:39.031Z,3.40
2023-05-17T21:54:47.757Z,3.30
2023-05-17T21:58:56.509Z,3.13
2023-05-17T22:03:06.039Z,3.20
2023-05-17T22:07:14.864Z,4.57
2023-05-17T22:11:23.582Z,3.47
2023-05-17T22:15:32.297Z,3.10
2023-05-17T22:19:41.593Z,3.60
2023-05-17T22:23:50.502Z,2.90
2023-05-17T22:27:59.170Z,4.12
2023-05-17T22:32:08.542Z,3.20
2023-05-17T22:36:17.222Z,3.43
2023-05-17T22:40:26.256Z,3.12
2023-05-17T22:44:36.471Z,3.40
2023-05-17T22:48:45.279Z,3.67
2023-05-17T22:52:53.925Z,3.33
2023-05-17T22:57:03.202Z,3.57
2023-05-17T23:01:14.310Z,3.70
2023-05-17T23:05:22.223Z,3.00
2023-05-17T23:09:33.511Z,3.10
2023-05-17T23:13:42.599Z,3.80
2023-05-17T23:17:51.606Z,3.40
2023-05-17T23:22:02.093Z,3.10
2023-05-17T23:26:10.731Z,2.77
2023-05-17T23:30:22.479Z,3.57
2023-05-17T23:34:31.302Z,2.87
2023-05-17T23:38:40.039Z,3.40
2023-05-17T23:42:48.812Z,3.43
2023-05-17T23:46:58.206Z,2.80
2023-05-17T23:51:07.022Z,3.37
2023-05-17T23:55:15.971Z,3.80
2023-05-17T23:59:25.164Z,3.53
